Sandia Park, NM (87047)

8:40 PM MST on November 22, 2017 (GMT -0700)
San Pedro Overlook | | Change Station

Elev 6390 ft 35.23 °N, 106.30 °W | Updated 13 seconds ago

Clear
Clear
43.2 °F
Feels Like 38 °F
N
8.1
Wind Variable Wind from South
Gusts 10.7 mph

Today
High -- | Low -- °F
--% Chance of Precip.
Yesterday
High -- | Low -- °F
Precip. -- in
Pressure 30.30 in
Visibility 10.0 miles
Clouds Few 30000 ft
Windchill 38 °F
Dew Point 24 °F
Humidity 46%
Rainfall 0.00 in
Snow Depth Not available.
6:47 AM 4:55 PM
Waxing Crescent, 18% visible
METAR KABQ 230252Z 00000KT 10SM FEW300 09/M04 A3034 RMK AO2 SLP261 T00891039 51011
Pressure 30.30 in
Visibility 10.0 miles
Clouds Few 30000 ft
Windchill 38 °F
Dew Point 24 °F
Humidity 46%
Rainfall 0.00 in
Snow Depth Not available.
6:47 AM 4:55 PM
Waxing Crescent, 18% visible
METAR KABQ 230252Z 00000KT 10SM FEW300 09/M04 A3034 RMK AO2 SLP261 T00891039 51011

Get Severe Weather Alerts

Thanks for signing up!

Be on the lookout for a verification email in your inbox.

You'll start receiving the daily forecast at 6 AM.

×

10-Day Weather Forecast

Almanac

Astronomy

Nov. 22, 2017 Rise Set
Actual Time
Civil Twilight
Nautical Twilight
Astronomical Twilight
Moon
Length of Visible Light
Length of Day
Tomorrow will be .
, % of the Moon is Illuminated

Today's Extremes

State Highs State Lows

Community

WunderPhotos

Category 6

Welcome to Category 6. This is the collective home for Weather Underground's featured writeups by Dr. Jeff Masters (right), Bob Henson (left), Chris Burt, and other regular contributors.

Nearby

Air Quality

  Air Quality AQ Index Pollutant
Not available.

Snow Depth

Station Depth Elevation

Earthquake Activity

City Distance Mag. Time & Date
Minimum magnitude displayed is 2.5.

Coastal Water Temperatures

Place Temperature

Stations

Nearby Weather Stations

Station Location Temp. Windchill Dew Point Humidity Wind Precip. Elev Updated Type
                   

Watches & Warnings

There are currently no watches in effect.